createdAt,value
2023-01-17T00:02:05.949Z,92.07
2023-01-17T00:05:27.711Z,92.19
2023-01-17T00:08:49.080Z,92.07
2023-01-17T00:11:51.868Z,92.07
2023-01-17T00:14:56.210Z,91.76
2023-01-17T00:17:58.765Z,92.02
2023-01-17T00:21:19.618Z,91.49
2023-01-17T00:24:40.251Z,91.08
2023-01-17T00:27:42.702Z,91.50
2023-01-17T00:30:45.829Z,90.85
2023-01-17T00:33:48.287Z,90.98
2023-01-17T00:36:50.702Z,90.80
2023-01-17T00:39:53.222Z,90.68
2023-01-17T00:43:13.990Z,90.83
2023-01-17T00:46:35.283Z,90.29
2023-01-17T00:49:56.262Z,89.71
2023-01-17T00:53:22.413Z,89.68
2023-01-17T00:56:43.119Z,89.87
2023-01-17T01:00:04.591Z,90.12
2023-01-17T01:03:30.027Z,89.97
2023-01-17T01:06:50.959Z,89.78
2023-01-17T01:10:12.320Z,90.09
2023-01-17T01:13:33.679Z,90.03
2023-01-17T01:16:54.944Z,90.58
2023-01-17T01:20:15.509Z,90.34
2023-01-17T01:23:36.263Z,89.40
2023-01-17T01:26:57.003Z,89.94
2023-01-17T01:30:18.147Z,90.56
2023-01-17T01:33:20.709Z,90.55
2023-01-17T01:36:23.164Z,90.21
2023-01-17T01:39:25.898Z,90.54
2023-01-17T01:42:28.395Z,90.58
2023-01-17T01:45:32.732Z,90.39
2023-01-17T01:48:43.938Z,90.55
2023-01-17T01:51:52.628Z,90.21
2023-01-17T01:55:04.273Z,90.56
2023-01-17T01:58:14.399Z,91.13
2023-01-17T02:01:18.108Z,91.18
2023-01-17T02:04:22.748Z,91.56
2023-01-17T02:07:36.783Z,91.76
2023-01-17T02:10:41.027Z,92.36
2023-01-17T02:13:43.823Z,91.80
2023-01-17T02:17:20.131Z,91.82
2023-01-17T02:20:43.861Z,92.24
2023-01-17T02:24:04.769Z,91.70
2023-01-17T02:27:32.936Z,91.87
2023-01-17T02:31:12.755Z,92.17
2023-01-17T02:34:22.895Z,92.47
2023-01-17T02:37:40.295Z,93.02
2023-01-17T02:40:49.572Z,92.99
2023-01-17T02:43:53.690Z,92.84
2023-01-17T02:46:58.138Z,92.86
2023-01-17T02:50:07.645Z,93.44
2023-01-17T02:53:40.435Z,93.06
2023-01-17T02:57:01.589Z,93.10
2023-01-17T03:00:18.237Z,93.16
2023-01-17T03:03:30.558Z,92.73
2023-01-17T03:06:40.149Z,92.78
2023-01-17T03:09:45.921Z,92.78
2023-01-17T03:12:48.486Z,92.46
2023-01-17T03:15:51.094Z,92.51
2023-01-17T03:18:56.672Z,92.53
2023-01-17T03:21:59.226Z,92.59
2023-01-17T03:25:01.696Z,92.85
2023-01-17T03:28:04.526Z,92.74
2023-01-17T03:31:07.051Z,92.16
2023-01-17T03:34:09.535Z,91.79
2023-01-17T03:37:12.097Z,91.86
2023-01-17T03:40:14.731Z,91.88
2023-01-17T03:43:17.165Z,91.83
2023-01-17T03:46:24.991Z,91.47
2023-01-17T03:49:27.511Z,91.60
2023-01-17T03:52:30.021Z,92.04
2023-01-17T03:55:32.530Z,92.08
2023-01-17T03:58:35.246Z,92.14
2023-01-17T04:01:37.873Z,91.60
2023-01-17T04:04:40.442Z,91.56
2023-01-17T04:07:42.923Z,91.84
2023-01-17T04:10:45.422Z,91.78
2023-01-17T04:13:47.872Z,91.74
2023-01-17T04:16:50.737Z,91.34
2023-01-17T04:19:53.523Z,91.83
2023-01-17T04:22:55.983Z,91.61
2023-01-17T04:25:58.466Z,91.50
2023-01-17T04:29:01.020Z,91.59
2023-01-17T04:32:03.614Z,91.22
2023-01-17T04:35:07.211Z,91.55
2023-01-17T04:38:09.682Z,91.54
2023-01-17T04:41:12.435Z,91.77
2023-01-17T04:44:18.762Z,91.67
2023-01-17T04:47:21.366Z,91.83
2023-01-17T04:50:24.089Z,92.31
2023-01-17T04:53:26.572Z,91.94
2023-01-17T04:56:29.038Z,92.23
2023-01-17T04:59:31.533Z,92.18
2023-01-17T05:02:33.967Z,91.96
2023-01-17T05:05:36.538Z,92.03
2023-01-17T05:08:39.061Z,91.75
2023-01-17T05:11:41.575Z,91.98
2023-01-17T05:14:44.002Z,92.04
2023-01-17T05:17:46.498Z,92.21
2023-01-17T05:20:49.122Z,92.19
2023-01-17T05:23:51.603Z,92.14
2023-01-17T05:26:54.852Z,91.84
2023-01-17T05:29:57.416Z,91.47
2023-01-17T05:32:59.945Z,91.56
2023-01-17T05:36:03.662Z,91.71
2023-01-17T05:39:06.215Z,91.56
2023-01-17T05:42:08.811Z,91.85
2023-01-17T05:45:12.496Z,91.86
2023-01-17T05:48:14.999Z,91.90
2023-01-17T05:51:17.679Z,92.00
2023-01-17T05:54:20.123Z,91.72
2023-01-17T05:57:22.612Z,91.86
2023-01-17T06:00:25.573Z,90.94
2023-01-17T06:03:28.115Z,90.96
2023-01-17T06:06:30.566Z,90.70
2023-01-17T06:09:33.779Z,90.93
2023-01-17T06:12:37.565Z,90.64
2023-01-17T06:15:40.236Z,90.49
2023-01-17T06:18:42.938Z,90.27
2023-01-17T06:21:45.430Z,90.80
2023-01-17T06:24:47.928Z,90.96
2023-01-17T06:27:50.628Z,91.04
2023-01-17T06:30:53.362Z,90.83
2023-01-17T06:33:56.012Z,91.22
2023-01-17T06:36:58.610Z,91.43
2023-01-17T06:40:01.353Z,91.53
2023-01-17T06:43:06.683Z,91.39
2023-01-17T06:46:09.181Z,91.71
2023-01-17T06:49:12.055Z,91.55
2023-01-17T06:52:14.589Z,91.43
2023-01-17T06:55:17.143Z,90.82
2023-01-17T06:58:19.634Z,91.05
2023-01-17T07:01:22.194Z,90.68
2023-01-17T07:04:24.874Z,90.31
2023-01-17T07:07:27.473Z,90.23
2023-01-17T07:10:30.079Z,90.46
2023-01-17T07:13:37.671Z,90.33
2023-01-17T07:16:40.461Z,90.22
2023-01-17T07:19:43.129Z,88.85
2023-01-17T07:22:46.128Z,87.67
2023-01-17T07:25:56.255Z,87.20
2023-01-17T07:28:58.795Z,86.86
2023-01-17T07:32:03.271Z,87.08
2023-01-17T07:35:07.564Z,87.33
2023-01-17T07:38:15.513Z,88.07
2023-01-17T07:41:18.134Z,86.25
2023-01-17T07:44:20.747Z,86.67
2023-01-17T07:47:24.802Z,87.50
2023-01-17T07:50:27.467Z,87.39
2023-01-17T07:53:33.045Z,86.43
2023-01-17T07:56:35.681Z,85.96
2023-01-17T07:59:38.240Z,85.30
2023-01-17T08:02:41.085Z,84.89
2023-01-17T08:05:52.371Z,84.32
2023-01-17T08:08:58.885Z,84.67
2023-01-17T08:12:01.578Z,84.77
2023-01-17T08:15:05.069Z,85.07
2023-01-17T08:18:07.653Z,84.20
2023-01-17T08:21:15.010Z,84.05
2023-01-17T08:24:17.450Z,84.53
2023-01-17T08:27:19.957Z,82.53
2023-01-17T08:30:22.480Z,82.62
2023-01-17T08:33:25.190Z,82.92
2023-01-17T08:36:28.729Z,83.60
2023-01-17T08:39:31.306Z,83.94
2023-01-17T08:42:39.291Z,82.88
2023-01-17T08:45:44.886Z,82.80
2023-01-17T08:48:47.466Z,83.68
2023-01-17T08:51:51.654Z,84.38
2023-01-17T08:54:54.325Z,84.20
2023-01-17T08:57:57.529Z,84.51
2023-01-17T09:01:02.690Z,84.35
2023-01-17T09:04:05.499Z,82.75
2023-01-17T09:07:08.157Z,83.70
2023-01-17T09:10:11.254Z,83.82
2023-01-17T09:13:13.910Z,83.00
2023-01-17T09:16:16.392Z,83.24
2023-01-17T09:19:19.261Z,82.83
2023-01-17T09:22:21.849Z,82.44
2023-01-17T09:25:24.459Z,81.18
2023-01-17T09:28:27.922Z,81.51
2023-01-17T09:31:30.704Z,81.12
2023-01-17T09:34:33.193Z,81.72
2023-01-17T09:37:35.798Z,79.80
2023-01-17T09:40:44.121Z,81.12
2023-01-17T09:43:55.593Z,80.52
2023-01-17T09:47:13.722Z,81.90
2023-01-17T09:50:33.316Z,78.86
2023-01-17T09:53:39.119Z,80.96
2023-01-17T09:56:48.949Z,78.77
2023-01-17T10:00:16.625Z,79.67
2023-01-17T10:03:37.436Z,77.61
2023-01-17T10:07:13.600Z,78.84
2023-01-17T10:10:29.600Z,78.04
2023-01-17T10:13:39.088Z,78.34
2023-01-17T10:17:21.631Z,76.84
2023-01-17T10:20:46.708Z,77.06
2023-01-17T10:24:03.845Z,76.42
2023-01-17T10:27:23.547Z,77.26
2023-01-17T10:30:38.148Z,76.64
2023-01-17T10:33:48.186Z,77.33
2023-01-17T10:37:00.451Z,77.54
2023-01-17T10:40:24.802Z,77.73
2023-01-17T10:43:39.498Z,76.57
2023-01-17T10:46:47.362Z,76.66
2023-01-17T10:49:57.754Z,76.80
2023-01-17T10:53:22.010Z,76.00
2023-01-17T10:56:28.694Z,76.86
2023-01-17T10:59:33.882Z,75.72
2023-01-17T11:02:43.163Z,76.01
2023-01-17T11:05:46.083Z,76.36
2023-01-17T11:09:00.631Z,73.98
2023-01-17T11:12:03.491Z,74.07
2023-01-17T11:15:22.089Z,73.00
2023-01-17T11:18:30.913Z,72.70
2023-01-17T11:21:33.765Z,74.83
2023-01-17T11:24:41.578Z,71.85
2023-01-17T11:28:00.593Z,71.79
2023-01-17T11:31:23.238Z,72.47
2023-01-17T11:34:33.107Z,72.23
2023-01-17T11:37:36.280Z,69.54
2023-01-17T11:40:46.621Z,70.30
2023-01-17T11:43:55.141Z,68.69
2023-01-17T11:47:12.775Z,68.66
2023-01-17T11:50:26.468Z,68.82
2023-01-17T11:53:33.314Z,70.66
2023-01-17T11:56:37.156Z,69.80
2023-01-17T11:59:44.987Z,68.57
2023-01-17T12:03:30.832Z,66.94
2023-01-17T12:06:56.476Z,65.96
2023-01-17T12:10:21.344Z,67.36
2023-01-17T12:14:03.394Z,63.72
2023-01-17T12:17:14.108Z,62.64
2023-01-17T12:20:57.950Z,64.51
2023-01-17T12:24:39.471Z,63.04
2023-01-17T12:28:28.268Z,63.15
2023-01-17T12:31:42.635Z,63.37
2023-01-17T12:34:57.512Z,63.49
2023-01-17T12:38:12.637Z,62.96
2023-01-17T12:41:28.935Z,61.12
2023-01-17T12:44:51.894Z,62.17
2023-01-17T12:48:03.242Z,63.50
2023-01-17T12:51:18.135Z,63.39
2023-01-17T12:54:31.615Z,63.24
2023-01-17T12:57:40.835Z,63.67
2023-01-17T13:00:47.962Z,63.71
2023-01-17T13:04:00.313Z,63.81
2023-01-17T13:07:25.772Z,64.26
2023-01-17T13:10:32.222Z,65.27
2023-01-17T13:13:36.141Z,64.57
2023-01-17T13:16:44.797Z,65.22
2023-01-17T13:19:56.094Z,66.25
2023-01-17T13:23:11.949Z,66.91
2023-01-17T13:26:26.108Z,66.31
2023-01-17T13:29:41.048Z,65.80
2023-01-17T13:32:56.199Z,66.12
2023-01-17T13:36:17.167Z,66.85
2023-01-17T13:39:44.172Z,66.68
2023-01-17T13:43:02.229Z,66.75
2023-01-17T13:46:05.412Z,66.70
2023-01-17T13:49:30.226Z,67.08
2023-01-17T13:52:33.681Z,67.80
2023-01-17T13:55:47.092Z,68.81
2023-01-17T13:58:54.600Z,68.17
2023-01-17T14:01:57.488Z,68.21
2023-01-17T14:05:16.314Z,69.08
2023-01-17T14:08:21.943Z,69.23
2023-01-17T14:11:24.457Z,69.65
2023-01-17T14:14:42.006Z,70.17
2023-01-17T14:17:51.716Z,70.39
2023-01-17T14:21:06.295Z,71.29
2023-01-17T14:24:13.128Z,73.10
2023-01-17T14:27:23.512Z,72.53
2023-01-17T14:30:28.083Z,73.35
2023-01-17T14:33:37.371Z,74.14
2023-01-17T14:36:39.957Z,74.27
2023-01-17T14:39:47.949Z,74.10
2023-01-17T14:43:10.794Z,74.89
2023-01-17T14:46:34.651Z,75.02
2023-01-17T14:49:37.225Z,75.29
2023-01-17T14:52:39.702Z,75.89
2023-01-17T14:55:48.056Z,75.58
2023-01-17T14:59:05.073Z,76.14
2023-01-17T15:02:16.194Z,76.03
2023-01-17T15:05:25.136Z,76.09
2023-01-17T15:08:34.768Z,75.99
2023-01-17T15:11:37.813Z,76.77
2023-01-17T15:14:44.247Z,76.06
2023-01-17T15:17:46.806Z,75.95
2023-01-17T15:21:03.611Z,76.38
2023-01-17T15:24:26.430Z,76.94
2023-01-17T15:27:29.144Z,77.06
2023-01-17T15:30:31.840Z,76.32
2023-01-17T15:33:37.352Z,75.71
2023-01-17T15:36:39.883Z,75.73
2023-01-17T15:39:42.577Z,76.45
2023-01-17T15:42:49.029Z,75.66
2023-01-17T15:45:56.934Z,75.26
2023-01-17T15:49:08.305Z,75.74
2023-01-17T15:52:15.917Z,75.30
2023-01-17T15:55:33.748Z,74.05
2023-01-17T15:58:36.267Z,75.88
2023-01-17T16:01:38.947Z,75.53
2023-01-17T16:04:42.365Z,74.57
2023-01-17T16:07:44.820Z,75.22
2023-01-17T16:10:47.420Z,75.23
2023-01-17T16:13:50.390Z,75.12
2023-01-17T16:16:53.773Z,75.27
2023-01-17T16:19:56.631Z,74.07
2023-01-17T16:23:00.377Z,74.21
2023-01-17T16:26:02.995Z,75.20
2023-01-17T16:29:07.645Z,74.87
2023-01-17T16:32:10.200Z,74.69
2023-01-17T16:35:23.910Z,74.12
2023-01-17T16:38:26.697Z,74.56
2023-01-17T16:41:29.406Z,74.96
2023-01-17T16:44:33.579Z,74.19
2023-01-17T16:47:36.074Z,75.25
2023-01-17T16:50:42.833Z,75.88
2023-01-17T16:53:45.609Z,76.08
2023-01-17T16:56:48.219Z,75.42
2023-01-17T16:59:51.179Z,76.73
2023-01-17T17:02:54.438Z,78.08
2023-01-17T17:05:59.793Z,78.54
2023-01-17T17:09:02.354Z,79.87
2023-01-17T17:12:05.962Z,79.75
2023-01-17T17:15:10.116Z,80.64
2023-01-17T17:18:17.871Z,80.89
2023-01-17T17:21:20.494Z,81.75
2023-01-17T17:24:23.147Z,81.72
2023-01-17T17:27:27.856Z,82.13
2023-01-17T17:30:31.570Z,83.27
2023-01-17T17:33:35.037Z,83.24
2023-01-17T17:36:42.283Z,83.05
2023-01-17T17:39:45.381Z,83.97
2023-01-17T17:42:47.798Z,84.16
2023-01-17T17:45:50.299Z,84.50
2023-01-17T17:48:53.193Z,84.65
2023-01-17T17:51:55.800Z,84.43
2023-01-17T17:54:58.484Z,85.24
2023-01-17T17:58:02.124Z,85.41
2023-01-17T18:01:06.277Z,85.67
2023-01-17T18:04:09.733Z,85.52
2023-01-17T18:07:12.576Z,86.00
2023-01-17T18:10:15.742Z,85.84
2023-01-17T18:13:18.567Z,86.42
2023-01-17T18:16:27.776Z,86.78
2023-01-17T18:19:30.324Z,87.20
2023-01-17T18:22:34.047Z,87.29
2023-01-17T18:25:36.782Z,87.87
2023-01-17T18:28:39.709Z,88.46
2023-01-17T18:31:46.995Z,87.82
2023-01-17T18:34:51.446Z,88.31
2023-01-17T18:37:54.161Z,88.30
2023-01-17T18:41:02.783Z,88.63
2023-01-17T18:44:06.426Z,88.83
2023-01-17T18:47:10.913Z,88.87
2023-01-17T18:50:13.806Z,88.75
2023-01-17T18:53:17.663Z,89.09
2023-01-17T18:56:22.333Z,89.39
2023-01-17T18:59:25.872Z,89.83
2023-01-17T19:02:28.535Z,89.36
2023-01-17T19:05:35.945Z,88.04
2023-01-17T19:08:38.765Z,88.59
2023-01-17T19:11:44.515Z,88.56
2023-01-17T19:14:47.217Z,88.73
2023-01-17T19:17:49.927Z,88.92
2023-01-17T19:20:52.394Z,88.88
2023-01-17T19:23:56.545Z,88.43
2023-01-17T19:26:59.367Z,88.45
2023-01-17T19:30:08.104Z,88.92
2023-01-17T19:33:10.880Z,88.78
2023-01-17T19:36:19.668Z,88.88
2023-01-17T19:39:25.424Z,88.66
2023-01-17T19:42:28.776Z,88.76
2023-01-17T19:45:31.570Z,89.37
2023-01-17T19:48:35.978Z,88.95
2023-01-17T19:51:39.913Z,88.59
2023-01-17T19:54:42.499Z,88.86
2023-01-17T19:57:45.013Z,89.39
2023-01-17T20:00:47.803Z,88.49
2023-01-17T20:03:51.390Z,89.45
2023-01-17T20:06:54.099Z,89.27
2023-01-17T20:09:57.615Z,89.67
2023-01-17T20:13:00.580Z,90.06
2023-01-17T20:16:05.232Z,90.09
2023-01-17T20:19:08.355Z,90.07
2023-01-17T20:22:11.016Z,90.05
2023-01-17T20:25:13.538Z,89.77
2023-01-17T20:28:16.861Z,89.57
2023-01-17T20:31:22.722Z,89.95
2023-01-17T20:34:25.780Z,89.83
2023-01-17T20:37:28.411Z,89.68
2023-01-17T20:40:31.687Z,90.27
2023-01-17T20:43:34.996Z,89.28
2023-01-17T20:46:41.338Z,88.81
2023-01-17T20:49:44.702Z,88.41
2023-01-17T20:52:48.543Z,88.29
2023-01-17T20:55:56.372Z,88.97
2023-01-17T20:58:58.977Z,89.33
2023-01-17T21:02:01.673Z,89.67
2023-01-17T21:05:05.046Z,89.78
2023-01-17T21:08:07.753Z,89.60
2023-01-17T21:11:13.218Z,89.94
2023-01-17T21:14:15.668Z,90.08
2023-01-17T21:17:18.585Z,90.22
2023-01-17T21:20:21.076Z,90.77
2023-01-17T21:23:29.184Z,91.66
2023-01-17T21:26:31.830Z,90.78
2023-01-17T21:29:34.448Z,90.76
2023-01-17T21:32:37.168Z,90.42
2023-01-17T21:35:39.663Z,90.06
2023-01-17T21:38:42.364Z,89.65
2023-01-17T21:41:48.023Z,89.65
2023-01-17T21:44:50.530Z,89.67
2023-01-17T21:47:53.003Z,89.35
2023-01-17T21:50:55.525Z,89.97
2023-01-17T21:53:58.103Z,89.65
2023-01-17T21:57:18.774Z,90.26
2023-01-17T22:00:21.251Z,90.09
2023-01-17T22:03:24.614Z,90.92
2023-01-17T22:06:34.442Z,90.50
2023-01-17T22:09:37.667Z,90.39
2023-01-17T22:12:40.180Z,90.51
2023-01-17T22:15:43.210Z,90.11
2023-01-17T22:18:46.919Z,90.53
2023-01-17T22:21:49.387Z,90.20
2023-01-17T22:24:51.893Z,89.53
2023-01-17T22:27:54.635Z,90.20
2023-01-17T22:30:58.081Z,89.96
2023-01-17T22:34:02.718Z,90.36
2023-01-17T22:37:10.017Z,90.36
2023-01-17T22:40:13.125Z,90.83
2023-01-17T22:43:15.580Z,89.88
2023-01-17T22:46:30.706Z,89.28
2023-01-17T22:49:33.299Z,89.79
2023-01-17T22:52:35.866Z,89.42
2023-01-17T22:55:38.429Z,89.74
2023-01-17T22:58:44.895Z,89.48
2023-01-17T23:01:47.511Z,90.06
2023-01-17T23:04:49.987Z,89.27
2023-01-17T23:07:52.520Z,89.52
2023-01-17T23:11:13.468Z,89.57
2023-01-17T23:14:17.332Z,89.29
2023-01-17T23:17:40.053Z,89.54
2023-01-17T23:20:42.691Z,89.45
2023-01-17T23:23:45.113Z,89.33
2023-01-17T23:27:07.476Z,88.70
2023-01-17T23:30:18.763Z,87.79
2023-01-17T23:33:21.251Z,88.49
2023-01-17T23:36:23.709Z,88.36
2023-01-17T23:39:28.513Z,88.09
2023-01-17T23:42:51.488Z,88.46
2023-01-17T23:45:54.774Z,89.08
2023-01-17T23:49:02.223Z,89.20
2023-01-17T23:52:05.906Z,88.03
2023-01-17T23:55:09.330Z,88.54
2023-01-17T23:58:12.624Z,88.63
